Terminal Aerodrome Forecast
Issued by NWS

Home | Current Version | Previous Version | Text Only | Print | Product List | Glossary On
Versions: 1 2 3 4 5 6 7 8 9 10 11 12 13
000
FTUS45 KTFX 232300 RRA
TAFGTF
TAF
KGTF 232343Z 2400/2424 21010KT P6SM SCT090 BKN150
     FM241200 22011KT P6SM SCT120
     FM241700 23017G25KT P6SM SCT120 BKN150=

USA.gov is the U.S. government's official web portal to all federal, state and local government web resources and services.